Historique des mesures à Cassis (13260), France
Quotidien Résumé Aout 16, 2017 Unités:  Métrique    US   Métrique/US
« Précédent (Jour)
Suivant (Jour) »
Quotidien Hebdomadaire Mensuel Annuel Période au choix
  Maximum: Minimum: Moyenne:
Température: TemperatureC °C 21.8 °C 24.2 °C
Point de rosée: DewpointC °C 9.8 °C 12.9 °C
Humidité: Humidity % 42 % 46 %
Vitesse du vent: 0 km/h 0 km/h 4.3 km/h
Rafales: 0 km/h - -
Vent:- - SSE
Pression: PressurehPa hPa 1013.1 hPa -
Précipitations: 0.0 mm    
Historical Graphs
 
 
Mesures pour : Aout 16, 2017
Heure Temperature Point de rosée Pression Vent Vitesse du vent Rafales Humidité Pluie (par heure) Conditions
TemperatureC °C DewpointC °C PressurehPa hPa Calm     Humidity % HourlyPrecipMM mm SoftwareType W/m2
00:11 23.0 °C 11.3 °C 1015.5 hPa NNW 10.3 km/h 10.9 km/h 48 % 0.0 mm open2300-1.11 W/m2
01:11 23.6 °C 10.2 °C 1015.1 hPa North 9.3 km/h 9.3 km/h 43 % 0.0 mm open2300-1.11 W/m2
02:11 23.6 °C 10.2 °C 1014.8 hPa East 4.2 km/h 4.2 km/h 43 % 0.0 mm open2300-1.11 W/m2
03:11 23.1 °C 9.8 °C 1014.4 hPa Calm   4.7 km/h 43 % 0.0 mm open2300-1.11 W/m2
04:11 22.8 °C 9.8 °C 1014.4 hPa Calm   2.3 km/h 44 % 0.0 mm open2300-1.11 W/m2
05:11 22.3 °C 10.4 °C 1014.4 hPa NW 9.3 km/h 9.3 km/h 47 % 0.0 mm open2300-1.11 W/m2
06:11 21.9 °C 10.0 °C 1014.1 hPa Calm     47 % 0.0 mm open2300-1.11 W/m2
07:11 21.8 °C 10.3 °C 1014.1 hPa Calm   3.4 km/h 48 % 0.0 mm open2300-1.11 W/m2
08:11 24.6 °C 11.5 °C 1014.8 hPa Calm   2.9 km/h 44 % 0.0 mm open2300-1.11 W/m2
09:11 25.3 °C 11.8 °C 1014.4 hPa Calm     43 % 0.0 mm open2300-1.11 W/m2
10:11 25.6 °C 13.8 °C 1014.8 hPa SE 5.1 km/h 6.4 km/h 48 % 0.0 mm open2300-1.11 W/m2
11:11 28.9 °C 15.4 °C 1014.4 hPa SE 8 km/h 8 km/h 44 % 0.0 mm open2300-1.11 W/m2
12:11 30.1 °C 15.8 °C 1014.4 hPa SE 6.4 km/h 6.4 km/h 42 % 0.0 mm open2300-1.11 W/m2
14:11 29.3 °C 16.8 °C 1014.1 hPa South 9.3 km/h 9.3 km/h 47 % 0.0 mm open2300-1.11 W/m2
15:11 28.9 °C 16.8 °C 1014.1 hPa SSE 9.8 km/h 9.8 km/h 48 % 0.0 mm open2300-1.11 W/m2
16:11 28.2 °C 16.4 °C 1013.8 hPa SE 6.4 km/h 8.9 km/h 49 % 0.0 mm open2300-1.11 W/m2
17:11 27.9 °C 16.8 °C 1013.4 hPa South 3.4 km/h 4.7 km/h 51 % 0.0 mm open2300-1.11 W/m2
18:11 27.0 °C 16.3 °C 1013.4 hPa Calm   4.7 km/h 52 % 0.0 mm open2300-1.11 W/m2
19:11 26.6 °C 16.2 °C 1013.1 hPa SE 4.7 km/h 4.7 km/h 53 % 0.0 mm open2300-1.11 W/m2
20:11 25.6 °C 15.9 °C 1013.4 hPa SE 4.7 km/h 4.7 km/h 55 % 0.0 mm open2300-1.11 W/m2
21:11 24.4 °C 15.6 °C 1013.8 hPa Calm   4.2 km/h 58 % 0.0 mm open2300-1.11 W/m2
22:11 23.8 °C 14.8 °C 1013.8 hPa North 9.8 km/h 14 km/h 57 % 0.0 mm open2300-1.11 W/m2
23:11 23.6 °C 14.8 °C 1013.8 hPa NNW 2.9 km/h 6.4 km/h 58 % 0.0 mm open2300-1.11 W/m2
Observations météo à CASSIS
WU-History script by Weather Underground - 1 mb